Terminal Aerodrome Forecast
Issued by NWS

Home | Current Version | Previous Version | Text Only | Print | Product List | Glossary On
Versions: 1 2 3 4 5 6 7 8 9 10 11 12 13 14 15 16 17 18
145
FTUS43 KILX 241126
TAFBMI
TAF
KBMI 241126Z 2412/2512 03009KT 1SM BR OVC002
     FM241400 02010KT 4SM BR OVC006
     FM241700 02011KT P6SM OVC020
     FM242000 02011KT P6SM BKN040
     FM250200 02008KT P6SM SCT200=

USA.gov is the U.S. government's official web portal to all federal, state and local government web resources and services.